sensor_id;sensor_type;location;lat;lon;timestamp;P1;durP1;ratioP1;P2;durP2;ratioP2
58412;SDS011;44209;52.952;6.790;2023-04-03T00:01:09;1.93;;;1.00;;
58412;SDS011;44209;52.952;6.790;2023-04-03T00:03:35;1.80;;;1.10;;
58412;SDS011;44209;52.952;6.790;2023-04-03T00:06:02;3.07;;;1.37;;
58412;SDS011;44209;52.952;6.790;2023-04-03T00:08:28;4.17;;;1.40;;
58412;SDS011;44209;52.952;6.790;2023-04-03T00:10:56;2.57;;;1.30;;
58412;SDS011;44209;52.952;6.790;2023-04-03T00:13:22;2.30;;;1.30;;
58412;SDS011;44209;52.952;6.790;2023-04-03T00:15:48;2.50;;;1.00;;
58412;SDS011;44209;52.952;6.790;2023-04-03T00:18:14;2.67;;;1.30;;
58412;SDS011;44209;52.952;6.790;2023-04-03T00:20:40;2.30;;;1.20;;
58412;SDS011;44209;52.952;6.790;2023-04-03T00:23:06;2.87;;;1.50;;
58412;SDS011;44209;52.952;6.790;2023-04-03T00:25:32;2.33;;;1.53;;
58412;SDS011;44209;52.952;6.790;2023-04-03T00:27:58;2.57;;;1.20;;
58412;SDS011;44209;52.952;6.790;2023-04-03T00:30:24;2.20;;;1.30;;
58412;SDS011;44209;52.952;6.790;2023-04-03T00:32:50;2.80;;;1.57;;
58412;SDS011;44209;52.952;6.790;2023-04-03T00:35:17;4.30;;;1.70;;
58412;SDS011;44209;52.952;6.790;2023-04-03T00:37:44;3.30;;;1.40;;
58412;SDS011;44209;52.952;6.790;2023-04-03T00:40:10;1.70;;;1.03;;
58412;SDS011;44209;52.952;6.790;2023-04-03T00:42:39;2.33;;;1.30;;
58412;SDS011;44209;52.952;6.790;2023-04-03T00:47:31;1.87;;;1.30;;
58412;SDS011;44209;52.952;6.790;2023-04-03T00:49:57;2.43;;;1.40;;
58412;SDS011;44209;52.952;6.790;2023-04-03T00:52:25;3.00;;;1.70;;
58412;SDS011;44209;52.952;6.790;2023-04-03T00:54:54;3.43;;;1.53;;
58412;SDS011;44209;52.952;6.790;2023-04-03T00:57:23;3.90;;;1.57;;
58412;SDS011;44209;52.952;6.790;2023-04-03T00:59:50;1.60;;;1.40;;
58412;SDS011;44209;52.952;6.790;2023-04-03T01:02:20;1.87;;;1.60;;
58412;SDS011;44209;52.952;6.790;2023-04-03T01:04:46;3.80;;;1.87;;
58412;SDS011;44209;52.952;6.790;2023-04-03T01:07:14;2.17;;;1.70;;
58412;SDS011;44209;52.952;6.790;2023-04-03T01:09:43;3.37;;;1.57;;
58412;SDS011;44209;52.952;6.790;2023-04-03T01:14:49;1.73;;;1.37;;
58412;SDS011;44209;52.952;6.790;2023-04-03T01:17:33;4.10;;;1.70;;
58412;SDS011;44209;52.952;6.790;2023-04-03T01:25:27;2.33;;;1.60;;
58412;SDS011;44209;52.952;6.790;2023-04-03T01:27:53;3.00;;;1.50;;
58412;SDS011;44209;52.952;6.790;2023-04-03T01:30:19;2.87;;;1.80;;
58412;SDS011;44209;52.952;6.790;2023-04-03T01:32:48;2.97;;;1.60;;
58412;SDS011;44209;52.952;6.790;2023-04-03T01:35:14;3.67;;;2.00;;
58412;SDS011;44209;52.952;6.790;2023-04-03T01:37:40;4.83;;;1.73;;
58412;SDS011;44209;52.952;6.790;2023-04-03T01:40:06;2.80;;;1.70;;
58412;SDS011;44209;52.952;6.790;2023-04-03T01:42:33;5.03;;;1.83;;
58412;SDS011;44209;52.952;6.790;2023-04-03T01:44:59;3.23;;;1.83;;
58412;SDS011;44209;52.952;6.790;2023-04-03T01:47:24;2.97;;;1.73;;
58412;SDS011;44209;52.952;6.790;2023-04-03T01:49:50;4.83;;;2.13;;
58412;SDS011;44209;52.952;6.790;2023-04-03T01:52:16;3.90;;;1.70;;
58412;SDS011;44209;52.952;6.790;2023-04-03T01:54:41;5.60;;;2.00;;
58412;SDS011;44209;52.952;6.790;2023-04-03T01:57:07;3.13;;;1.97;;
58412;SDS011;44209;52.952;6.790;2023-04-03T01:59:32;5.33;;;1.90;;
58412;SDS011;44209;52.952;6.790;2023-04-03T02:01:58;2.87;;;1.70;;
58412;SDS011;44209;52.952;6.790;2023-04-03T02:04:24;4.67;;;1.97;;
58412;SDS011;44209;52.952;6.790;2023-04-03T02:06:50;3.40;;;2.07;;
58412;SDS011;44209;52.952;6.790;2023-04-03T02:09:15;3.03;;;1.87;;
58412;SDS011;44209;52.952;6.790;2023-04-03T02:11:41;2.87;;;1.90;;
58412;SDS011;44209;52.952;6.790;2023-04-03T02:14:07;5.73;;;1.80;;
58412;SDS011;44209;52.952;6.790;2023-04-03T02:16:32;3.93;;;1.93;;
58412;SDS011;44209;52.952;6.790;2023-04-03T02:18:58;3.53;;;1.90;;
58412;SDS011;44209;52.952;6.790;2023-04-03T02:21:24;5.00;;;1.83;;
58412;SDS011;44209;52.952;6.790;2023-04-03T02:23:49;6.10;;;1.83;;
58412;SDS011;44209;52.952;6.790;2023-04-03T02:26:16;4.87;;;2.00;;
58412;SDS011;44209;52.952;6.790;2023-04-03T02:28:41;4.10;;;1.93;;
58412;SDS011;44209;52.952;6.790;2023-04-03T02:31:08;2.60;;;1.80;;
58412;SDS011;44209;52.952;6.790;2023-04-03T02:33:35;3.47;;;2.20;;
58412;SDS011;44209;52.952;6.790;2023-04-03T02:36:02;5.37;;;2.00;;
58412;SDS011;44209;52.952;6.790;2023-04-03T02:38:29;2.77;;;2.03;;
58412;SDS011;44209;52.952;6.790;2023-04-03T02:41:08;6.43;;;2.93;;
58412;SDS011;44209;52.952;6.790;2023-04-03T02:43:35;5.57;;;2.50;;
58412;SDS011;44209;52.952;6.790;2023-04-03T02:46:01;4.87;;;2.20;;
58412;SDS011;44209;52.952;6.790;2023-04-03T02:48:27;3.87;;;2.33;;
58412;SDS011;44209;52.952;6.790;2023-04-03T02:50:53;4.93;;;2.13;;
58412;SDS011;44209;52.952;6.790;2023-04-03T02:53:19;4.90;;;2.00;;
58412;SDS011;44209;52.952;6.790;2023-04-03T02:55:45;5.47;;;2.10;;
58412;SDS011;44209;52.952;6.790;2023-04-03T02:58:10;4.93;;;1.70;;
58412;SDS011;44209;52.952;6.790;2023-04-03T03:00:37;5.07;;;2.20;;
58412;SDS011;44209;52.952;6.790;2023-04-03T03:03:03;3.40;;;1.77;;
58412;SDS011;44209;52.952;6.790;2023-04-03T03:05:29;5.60;;;2.20;;
58412;SDS011;44209;52.952;6.790;2023-04-03T03:07:55;6.97;;;2.57;;
58412;SDS011;44209;52.952;6.790;2023-04-03T03:10:21;3.40;;;2.00;;
58412;SDS011;44209;52.952;6.790;2023-04-03T03:12:47;5.30;;;2.27;;
58412;SDS011;44209;52.952;6.790;2023-04-03T03:15:13;3.00;;;2.07;;
58412;SDS011;44209;52.952;6.790;2023-04-03T03:17:40;4.33;;;2.27;;
58412;SDS011;44209;52.952;6.790;2023-04-03T03:20:06;5.27;;;2.50;;
58412;SDS011;44209;52.952;6.790;2023-04-03T03:22:33;6.67;;;2.27;;
58412;SDS011;44209;52.952;6.790;2023-04-03T03:24:59;4.17;;;2.40;;
58412;SDS011;44209;52.952;6.790;2023-04-03T03:27:25;9.07;;;2.77;;
58412;SDS011;44209;52.952;6.790;2023-04-03T03:29:51;5.27;;;2.27;;
58412;SDS011;44209;52.952;6.790;2023-04-03T03:32:17;5.30;;;2.57;;
58412;SDS011;44209;52.952;6.790;2023-04-03T03:34:43;5.73;;;2.50;;
58412;SDS011;44209;52.952;6.790;2023-04-03T03:37:08;5.23;;;2.90;;
58412;SDS011;44209;52.952;6.790;2023-04-03T03:39:34;8.83;;;2.83;;
58412;SDS011;44209;52.952;6.790;2023-04-03T03:42:00;5.13;;;2.80;;
58412;SDS011;44209;52.952;6.790;2023-04-03T03:44:25;6.50;;;2.80;;
58412;SDS011;44209;52.952;6.790;2023-04-03T03:46:53;6.23;;;3.20;;
58412;SDS011;44209;52.952;6.790;2023-04-03T03:49:18;6.23;;;3.10;;
58412;SDS011;44209;52.952;6.790;2023-04-03T03:51:44;6.77;;;2.73;;
58412;SDS011;44209;52.952;6.790;2023-04-03T03:54:10;8.07;;;3.20;;
58412;SDS011;44209;52.952;6.790;2023-04-03T03:56:36;4.47;;;2.90;;
58412;SDS011;44209;52.952;6.790;2023-04-03T03:59:01;3.80;;;2.90;;
58412;SDS011;44209;52.952;6.790;2023-04-03T04:01:28;5.10;;;3.40;;
58412;SDS011;44209;52.952;6.790;2023-04-03T04:03:53;7.70;;;3.20;;
58412;SDS011;44209;52.952;6.790;2023-04-03T04:06:20;6.93;;;3.43;;
58412;SDS011;44209;52.952;6.790;2023-04-03T04:08:46;7.03;;;3.30;;
58412;SDS011;44209;52.952;6.790;2023-04-03T04:11:12;6.73;;;3.57;;
58412;SDS011;44209;52.952;6.790;2023-04-03T04:13:38;6.77;;;3.50;;
58412;SDS011;44209;52.952;6.790;2023-04-03T04:16:03;4.53;;;3.23;;
58412;SDS011;44209;52.952;6.790;2023-04-03T04:18:30;8.20;;;2.97;;
58412;SDS011;44209;52.952;6.790;2023-04-03T04:20:55;7.00;;;3.30;;
58412;SDS011;44209;52.952;6.790;2023-04-03T04:23:21;5.47;;;3.30;;
58412;SDS011;44209;52.952;6.790;2023-04-03T04:25:47;6.20;;;3.20;;
58412;SDS011;44209;52.952;6.790;2023-04-03T04:28:14;6.57;;;3.23;;
58412;SDS011;44209;52.952;6.790;2023-04-03T04:30:40;5.80;;;3.50;;
58412;SDS011;44209;52.952;6.790;2023-04-03T04:33:06;5.80;;;3.60;;
58412;SDS011;44209;52.952;6.790;2023-04-03T04:35:32;7.63;;;3.30;;
58412;SDS011;44209;52.952;6.790;2023-04-03T04:37:58;9.57;;;3.93;;
58412;SDS011;44209;52.952;6.790;2023-04-03T04:40:25;6.87;;;3.80;;
58412;SDS011;44209;52.952;6.790;2023-04-03T04:42:50;6.20;;;3.70;;
58412;SDS011;44209;52.952;6.790;2023-04-03T04:45:16;6.87;;;3.53;;
58412;SDS011;44209;52.952;6.790;2023-04-03T04:47:42;6.57;;;4.00;;
58412;SDS011;44209;52.952;6.790;2023-04-03T04:50:08;7.37;;;3.87;;
58412;SDS011;44209;52.952;6.790;2023-04-03T04:52:34;5.50;;;3.63;;
58412;SDS011;44209;52.952;6.790;2023-04-03T04:55:00;7.90;;;3.87;;
58412;SDS011;44209;52.952;6.790;2023-04-03T04:57:26;9.13;;;4.33;;
58412;SDS011;44209;52.952;6.790;2023-04-03T04:59:51;8.03;;;4.47;;
58412;SDS011;44209;52.952;6.790;2023-04-03T05:02:17;6.57;;;4.13;;
58412;SDS011;44209;52.952;6.790;2023-04-03T05:04:43;10.13;;;4.27;;
58412;SDS011;44209;52.952;6.790;2023-04-03T05:07:09;9.73;;;4.47;;
58412;SDS011;44209;52.952;6.790;2023-04-03T05:09:34;6.83;;;4.23;;
58412;SDS011;44209;52.952;6.790;2023-04-03T05:12:00;6.97;;;4.20;;
58412;SDS011;44209;52.952;6.790;2023-04-03T05:14:27;11.20;;;4.63;;
58412;SDS011;44209;52.952;6.790;2023-04-03T05:16:53;7.80;;;4.27;;
58412;SDS011;44209;52.952;6.790;2023-04-03T05:19:22;5.83;;;4.13;;
58412;SDS011;44209;52.952;6.790;2023-04-03T05:21:48;7.83;;;4.23;;
58412;SDS011;44209;52.952;6.790;2023-04-03T05:24:14;12.30;;;4.87;;
58412;SDS011;44209;52.952;6.790;2023-04-03T05:26:41;10.90;;;4.80;;
58412;SDS011;44209;52.952;6.790;2023-04-03T05:29:07;6.73;;;4.53;;
58412;SDS011;44209;52.952;6.790;2023-04-03T05:31:33;9.07;;;4.87;;
58412;SDS011;44209;52.952;6.790;2023-04-03T05:33:59;8.47;;;4.83;;
58412;SDS011;44209;52.952;6.790;2023-04-03T05:36:24;11.80;;;5.40;;
58412;SDS011;44209;52.952;6.790;2023-04-03T05:38:51;8.10;;;5.17;;
58412;SDS011;44209;52.952;6.790;2023-04-03T05:41:17;10.60;;;5.20;;
58412;SDS011;44209;52.952;6.790;2023-04-03T05:43:42;10.50;;;5.33;;
58412;SDS011;44209;52.952;6.790;2023-04-03T05:46:12;9.77;;;5.30;;
58412;SDS011;44209;52.952;6.790;2023-04-03T05:48:39;9.63;;;5.30;;
58412;SDS011;44209;52.952;6.790;2023-04-03T05:51:06;9.10;;;5.60;;
58412;SDS011;44209;52.952;6.790;2023-04-03T05:53:35;7.43;;;5.23;;
58412;SDS011;44209;52.952;6.790;2023-04-03T05:56:04;11.13;;;5.57;;
58412;SDS011;44209;52.952;6.790;2023-04-03T05:58:30;10.30;;;6.07;;
58412;SDS011;44209;52.952;6.790;2023-04-03T06:00:55;9.30;;;5.50;;
58412;SDS011;44209;52.952;6.790;2023-04-03T06:03:22;12.47;;;5.30;;
58412;SDS011;44209;52.952;6.790;2023-04-03T06:05:48;11.13;;;5.57;;
58412;SDS011;44209;52.952;6.790;2023-04-03T06:08:14;9.67;;;5.37;;
58412;SDS011;44209;52.952;6.790;2023-04-03T06:10:40;7.63;;;5.33;;
58412;SDS011;44209;52.952;6.790;2023-04-03T06:13:05;11.43;;;5.47;;
58412;SDS011;44209;52.952;6.790;2023-04-03T06:15:32;9.57;;;5.23;;
58412;SDS011;44209;52.952;6.790;2023-04-03T06:17:58;9.53;;;5.60;;
58412;SDS011;44209;52.952;6.790;2023-04-03T06:20:25;9.73;;;4.97;;
58412;SDS011;44209;52.952;6.790;2023-04-03T06:22:50;10.67;;;5.23;;
58412;SDS011;44209;52.952;6.790;2023-04-03T06:25:16;9.87;;;5.70;;
58412;SDS011;44209;52.952;6.790;2023-04-03T06:27:44;9.00;;;5.80;;
58412;SDS011;44209;52.952;6.790;2023-04-03T06:30:10;11.90;;;5.57;;
58412;SDS011;44209;52.952;6.790;2023-04-03T06:32:37;10.23;;;5.73;;
58412;SDS011;44209;52.952;6.790;2023-04-03T06:35:03;8.57;;;5.90;;
58412;SDS011;44209;52.952;6.790;2023-04-03T06:37:30;10.37;;;5.23;;
58412;SDS011;44209;52.952;6.790;2023-04-03T06:39:57;7.63;;;5.37;;
58412;SDS011;44209;52.952;6.790;2023-04-03T06:42:23;10.03;;;5.57;;
58412;SDS011;44209;52.952;6.790;2023-04-03T06:44:49;11.47;;;5.20;;
58412;SDS011;44209;52.952;6.790;2023-04-03T06:47:15;9.97;;;4.67;;
58412;SDS011;44209;52.952;6.790;2023-04-03T06:49:42;7.30;;;4.80;;
58412;SDS011;44209;52.952;6.790;2023-04-03T06:52:08;8.80;;;5.23;;
58412;SDS011;44209;52.952;6.790;2023-04-03T06:54:35;12.13;;;5.33;;
58412;SDS011;44209;52.952;6.790;2023-04-03T06:57:01;7.63;;;5.07;;
58412;SDS011;44209;52.952;6.790;2023-04-03T06:59:27;7.90;;;4.93;;
58412;SDS011;44209;52.952;6.790;2023-04-03T07:01:52;8.90;;;4.90;;
58412;SDS011;44209;52.952;6.790;2023-04-03T07:04:18;8.30;;;4.60;;
58412;SDS011;44209;52.952;6.790;2023-04-03T07:06:45;12.13;;;5.10;;
58412;SDS011;44209;52.952;6.790;2023-04-03T07:09:12;8.87;;;4.33;;
58412;SDS011;44209;52.952;6.790;2023-04-03T07:11:38;10.00;;;5.10;;
58412;SDS011;44209;52.952;6.790;2023-04-03T07:14:04;11.27;;;4.57;;
58412;SDS011;44209;52.952;6.790;2023-04-03T07:16:31;8.20;;;4.27;;
58412;SDS011;44209;52.952;6.790;2023-04-03T07:18:57;8.37;;;4.27;;
58412;SDS011;44209;52.952;6.790;2023-04-03T07:21:23;7.37;;;4.03;;
58412;SDS011;44209;52.952;6.790;2023-04-03T07:23:49;7.30;;;3.40;;
58412;SDS011;44209;52.952;6.790;2023-04-03T07:26:15;9.13;;;4.30;;
58412;SDS011;44209;52.952;6.790;2023-04-03T07:28:40;7.97;;;3.63;;
58412;SDS011;44209;52.952;6.790;2023-04-03T07:31:07;6.90;;;3.80;;
58412;SDS011;44209;52.952;6.790;2023-04-03T07:33:36;8.17;;;3.73;;
58412;SDS011;44209;52.952;6.790;2023-04-03T07:36:03;10.33;;;3.83;;
58412;SDS011;44209;52.952;6.790;2023-04-03T07:38:30;6.83;;;3.10;;
58412;SDS011;44209;52.952;6.790;2023-04-03T07:40:56;7.73;;;3.60;;
58412;SDS011;44209;52.952;6.790;2023-04-03T07:43:22;9.23;;;3.33;;
58412;SDS011;44209;52.952;6.790;2023-04-03T07:45:49;7.37;;;3.30;;
58412;SDS011;44209;52.952;6.790;2023-04-03T07:48:16;5.03;;;3.10;;
58412;SDS011;44209;52.952;6.790;2023-04-03T07:50:46;7.60;;;3.60;;
58412;SDS011;44209;52.952;6.790;2023-04-03T07:53:12;7.20;;;3.30;;
58412;SDS011;44209;52.952;6.790;2023-04-03T07:55:37;7.73;;;3.13;;
58412;SDS011;44209;52.952;6.790;2023-04-03T07:58:11;3.57;;;2.33;;
58412;SDS011;44209;52.952;6.790;2023-04-03T08:00:40;6.63;;;2.42;;
58412;SDS011;44209;52.952;6.790;2023-04-03T08:03:06;4.83;;;2.60;;
58412;SDS011;44209;52.952;6.790;2023-04-03T08:05:36;6.90;;;2.30;;
58412;SDS011;44209;52.952;6.790;2023-04-03T08:08:04;5.83;;;2.40;;
58412;SDS011;44209;52.952;6.790;2023-04-03T08:10:30;9.80;;;2.80;;
58412;SDS011;44209;52.952;6.790;2023-04-03T08:12:56;4.63;;;2.47;;
58412;SDS011;44209;52.952;6.790;2023-04-03T08:15:22;6.00;;;2.43;;
58412;SDS011;44209;52.952;6.790;2023-04-03T08:17:48;6.47;;;2.37;;
58412;SDS011;44209;52.952;6.790;2023-04-03T08:20:14;5.80;;;2.50;;
58412;SDS011;44209;52.952;6.790;2023-04-03T08:22:40;3.20;;;2.07;;
58412;SDS011;44209;52.952;6.790;2023-04-03T08:25:05;5.80;;;2.33;;
58412;SDS011;44209;52.952;6.790;2023-04-03T08:27:31;5.27;;;2.30;;
58412;SDS011;44209;52.952;6.790;2023-04-03T08:29:57;5.47;;;2.70;;
58412;SDS011;44209;52.952;6.790;2023-04-03T08:32:23;6.07;;;2.10;;
58412;SDS011;44209;52.952;6.790;2023-04-03T08:34:49;5.40;;;2.10;;
58412;SDS011;44209;52.952;6.790;2023-04-03T08:37:15;4.17;;;2.30;;
58412;SDS011;44209;52.952;6.790;2023-04-03T08:39:41;4.83;;;2.10;;
58412;SDS011;44209;52.952;6.790;2023-04-03T08:42:16;5.57;;;2.10;;
58412;SDS011;44209;52.952;6.790;2023-04-03T08:50:38;3.70;;;1.70;;
58412;SDS011;44209;52.952;6.790;2023-04-03T08:53:17;4.57;;;2.13;;
58412;SDS011;44209;52.952;6.790;2023-04-03T08:55:50;4.13;;;2.03;;
58412;SDS011;44209;52.952;6.790;2023-04-03T09:00:53;3.57;;;1.63;;
58412;SDS011;44209;52.952;6.790;2023-04-03T09:03:24;5.30;;;1.80;;
58412;SDS011;44209;52.952;6.790;2023-04-03T09:08:46;7.57;;;1.70;;
58412;SDS011;44209;52.952;6.790;2023-04-03T09:11:37;3.67;;;2.13;;
58412;SDS011;44209;52.952;6.790;2023-04-03T09:17:03;4.17;;;1.63;;
58412;SDS011;44209;52.952;6.790;2023-04-03T09:19:51;5.23;;;1.80;;
58412;SDS011;44209;52.952;6.790;2023-04-03T09:22:24;4.53;;;1.60;;
58412;SDS011;44209;52.952;6.790;2023-04-03T09:25:03;2.70;;;1.50;;
58412;SDS011;44209;52.952;6.790;2023-04-03T09:27:36;3.80;;;1.60;;
58412;SDS011;44209;52.952;6.790;2023-04-03T09:30:02;5.50;;;2.10;;
58412;SDS011;44209;52.952;6.790;2023-04-03T09:32:30;2.80;;;1.30;;
58412;SDS011;44209;52.952;6.790;2023-04-03T09:35:04;3.93;;;1.27;;
58412;SDS011;44209;52.952;6.790;2023-04-03T09:37:46;3.58;;;1.35;;
58412;SDS011;44209;52.952;6.790;2023-04-03T09:42:57;3.53;;;1.67;;
58412;SDS011;44209;52.952;6.790;2023-04-03T09:48:05;2.90;;;1.00;;
58412;SDS011;44209;52.952;6.790;2023-04-03T09:50:38;3.87;;;1.20;;
58412;SDS011;44209;52.952;6.790;2023-04-03T09:53:40;1.67;;;1.30;;
58412;SDS011;44209;52.952;6.790;2023-04-03T09:58:39;3.28;;;1.30;;
58412;SDS011;44209;52.952;6.790;2023-04-03T10:01:06;2.77;;;1.03;;
58412;SDS011;44209;52.952;6.790;2023-04-03T10:03:48;3.13;;;1.10;;
58412;SDS011;44209;52.952;6.790;2023-04-03T10:06:40;2.47;;;1.40;;
58412;SDS011;44209;52.952;6.790;2023-04-03T10:09:30;3.37;;;1.37;;
58412;SDS011;44209;52.952;6.790;2023-04-03T10:12:07;2.40;;;1.30;;
58412;SDS011;44209;52.952;6.790;2023-04-03T10:14:39;4.00;;;1.47;;
58412;SDS011;44209;52.952;6.790;2023-04-03T10:19:58;2.23;;;1.30;;
58412;SDS011;44209;52.952;6.790;2023-04-03T10:25:28;3.47;;;1.30;;
58412;SDS011;44209;52.952;6.790;2023-04-03T10:36:45;3.50;;;1.30;;
58412;SDS011;44209;52.952;6.790;2023-04-03T10:44:19;3.13;;;1.73;;
58412;SDS011;44209;52.952;6.790;2023-04-03T10:46:59;3.70;;;1.50;;
58412;SDS011;44209;52.952;6.790;2023-04-03T10:52:24;3.13;;;1.30;;
58412;SDS011;44209;52.952;6.790;2023-04-03T10:55:29;2.57;;;1.70;;
58412;SDS011;44209;52.952;6.790;2023-04-03T10:58:00;2.57;;;1.40;;
58412;SDS011;44209;52.952;6.790;2023-04-03T11:00:45;4.47;;;1.53;;
58412;SDS011;44209;52.952;6.790;2023-04-03T11:03:33;2.87;;;1.33;;
58412;SDS011;44209;52.952;6.790;2023-04-03T11:06:10;2.77;;;1.33;;
58412;SDS011;44209;52.952;6.790;2023-04-03T11:11:30;3.83;;;1.60;;
58412;SDS011;44209;52.952;6.790;2023-04-03T11:22:16;1.70;;;1.43;;
58412;SDS011;44209;52.952;6.790;2023-04-03T11:24:56;2.67;;;1.10;;
58412;SDS011;44209;52.952;6.790;2023-04-03T11:27:30;3.03;;;1.13;;
58412;SDS011;44209;52.952;6.790;2023-04-03T11:30:05;3.13;;;1.37;;
58412;SDS011;44209;52.952;6.790;2023-04-03T11:35:04;5.90;;;1.30;;
58412;SDS011;44209;52.952;6.790;2023-04-03T11:37:38;3.13;;;1.40;;
58412;SDS011;44209;52.952;6.790;2023-04-03T11:42:46;2.73;;;1.13;;
58412;SDS011;44209;52.952;6.790;2023-04-03T11:45:37;2.97;;;1.43;;
58412;SDS011;44209;52.952;6.790;2023-04-03T11:50:57;3.03;;;1.30;;
58412;SDS011;44209;52.952;6.790;2023-04-03T11:53:36;3.50;;;1.30;;
58412;SDS011;44209;52.952;6.790;2023-04-03T12:04:19;4.35;;;1.65;;
58412;SDS011;44209;52.952;6.790;2023-04-03T12:11:59;4.60;;;1.47;;
58412;SDS011;44209;52.952;6.790;2023-04-03T12:14:27;2.90;;;1.23;;
58412;SDS011;44209;52.952;6.790;2023-04-03T12:16:54;3.53;;;1.50;;
58412;SDS011;44209;52.952;6.790;2023-04-03T12:19:33;2.27;;;1.23;;
58412;SDS011;44209;52.952;6.790;2023-04-03T12:22:06;1.80;;;1.23;;
58412;SDS011;44209;52.952;6.790;2023-04-03T12:24:37;4.27;;;1.43;;
58412;SDS011;44209;52.952;6.790;2023-04-03T12:27:17;4.97;;;1.50;;
58412;SDS011;44209;52.952;6.790;2023-04-03T12:40:46;4.13;;;1.20;;
58412;SDS011;44209;52.952;6.790;2023-04-03T12:43:22;2.67;;;1.30;;
58412;SDS011;44209;52.952;6.790;2023-04-03T12:46:03;2.27;;;1.30;;
58412;SDS011;44209;52.952;6.790;2023-04-03T12:48:30;3.33;;;1.40;;
58412;SDS011;44209;52.952;6.790;2023-04-03T12:50:59;4.50;;;1.20;;
58412;SDS011;44209;52.952;6.790;2023-04-03T12:53:29;3.00;;;1.23;;
58412;SDS011;44209;52.952;6.790;2023-04-03T12:58:43;2.63;;;1.43;;
58412;SDS011;44209;52.952;6.790;2023-04-03T13:01:11;3.40;;;1.30;;
58412;SDS011;44209;52.952;6.790;2023-04-03T13:03:40;3.57;;;1.40;;
58412;SDS011;44209;52.952;6.790;2023-04-03T13:06:30;2.50;;;1.60;;
58412;SDS011;44209;52.952;6.790;2023-04-03T13:09:02;3.83;;;1.40;;
58412;SDS011;44209;52.952;6.790;2023-04-03T13:11:47;2.30;;;1.40;;
58412;SDS011;44209;52.952;6.790;2023-04-03T13:14:22;3.25;;;1.80;;
58412;SDS011;44209;52.952;6.790;2023-04-03T13:19:20;2.67;;;1.60;;
58412;SDS011;44209;52.952;6.790;2023-04-03T13:21:47;2.37;;;1.70;;
58412;SDS011;44209;52.952;6.790;2023-04-03T13:24:14;4.23;;;1.80;;
58412;SDS011;44209;52.952;6.790;2023-04-03T13:26:40;3.77;;;2.00;;
58412;SDS011;44209;52.952;6.790;2023-04-03T13:29:07;2.20;;;1.50;;
58412;SDS011;44209;52.952;6.790;2023-04-03T13:31:46;4.20;;;1.67;;
58412;SDS011;44209;52.952;6.790;2023-04-03T13:34:17;4.37;;;1.90;;
58412;SDS011;44209;52.952;6.790;2023-04-03T13:41:51;2.93;;;1.60;;
58412;SDS011;44209;52.952;6.790;2023-04-03T13:46:49;2.97;;;1.60;;
58412;SDS011;44209;52.952;6.790;2023-04-03T13:51:58;3.47;;;1.67;;
58412;SDS011;44209;52.952;6.790;2023-04-03T13:54:36;3.57;;;1.67;;
58412;SDS011;44209;52.952;6.790;2023-04-03T13:57:03;2.80;;;1.53;;
58412;SDS011;44209;52.952;6.790;2023-04-03T13:59:39;8.57;;;2.27;;
58412;SDS011;44209;52.952;6.790;2023-04-03T14:07:02;4.33;;;1.97;;
58412;SDS011;44209;52.952;6.790;2023-04-03T14:09:28;6.57;;;2.20;;
58412;SDS011;44209;52.952;6.790;2023-04-03T14:11:59;3.57;;;1.67;;
58412;SDS011;44209;52.952;6.790;2023-04-03T14:14:31;3.80;;;1.60;;
58412;SDS011;44209;52.952;6.790;2023-04-03T14:17:00;4.00;;;1.70;;
58412;SDS011;44209;52.952;6.790;2023-04-03T14:19:32;3.27;;;1.80;;
58412;SDS011;44209;52.952;6.790;2023-04-03T14:22:00;5.13;;;1.93;;
58412;SDS011;44209;52.952;6.790;2023-04-03T14:24:26;2.43;;;1.90;;
58412;SDS011;44209;52.952;6.790;2023-04-03T14:26:55;2.90;;;1.70;;
58412;SDS011;44209;52.952;6.790;2023-04-03T14:29:21;4.57;;;1.80;;
58412;SDS011;44209;52.952;6.790;2023-04-03T14:31:48;4.13;;;1.57;;
58412;SDS011;44209;52.952;6.790;2023-04-03T14:34:15;2.80;;;1.60;;
58412;SDS011;44209;52.952;6.790;2023-04-03T14:36:42;1.90;;;1.43;;
58412;SDS011;44209;52.952;6.790;2023-04-03T14:39:27;3.47;;;1.53;;
58412;SDS011;44209;52.952;6.790;2023-04-03T14:41:53;2.90;;;1.50;;
58412;SDS011;44209;52.952;6.790;2023-04-03T14:44:18;3.40;;;1.60;;
58412;SDS011;44209;52.952;6.790;2023-04-03T14:46:44;3.17;;;1.70;;
58412;SDS011;44209;52.952;6.790;2023-04-03T14:49:19;2.30;;;1.70;;
58412;SDS011;44209;52.952;6.790;2023-04-03T14:51:46;3.83;;;1.60;;
58412;SDS011;44209;52.952;6.790;2023-04-03T14:54:13;2.70;;;1.30;;
58412;SDS011;44209;52.952;6.790;2023-04-03T14:56:40;2.80;;;1.47;;
58412;SDS011;44209;52.952;6.790;2023-04-03T14:59:13;2.33;;;1.40;;
58412;SDS011;44209;52.952;6.790;2023-04-03T15:01:40;2.37;;;1.27;;
58412;SDS011;44209;52.952;6.790;2023-04-03T15:04:16;3.23;;;1.50;;
58412;SDS011;44209;52.952;6.790;2023-04-03T15:06:44;3.87;;;1.60;;
58412;SDS011;44209;52.952;6.790;2023-04-03T15:09:23;3.23;;;1.80;;
58412;SDS011;44209;52.952;6.790;2023-04-03T15:11:51;3.63;;;1.40;;
58412;SDS011;44209;52.952;6.790;2023-04-03T15:14:17;3.90;;;1.87;;
58412;SDS011;44209;52.952;6.790;2023-04-03T15:16:44;2.83;;;1.63;;
58412;SDS011;44209;52.952;6.790;2023-04-03T15:19:10;3.90;;;1.80;;
58412;SDS011;44209;52.952;6.790;2023-04-03T15:21:37;2.73;;;1.70;;
58412;SDS011;44209;52.952;6.790;2023-04-03T15:24:03;4.43;;;1.80;;
58412;SDS011;44209;52.952;6.790;2023-04-03T15:26:29;2.03;;;1.30;;
58412;SDS011;44209;52.952;6.790;2023-04-03T15:28:55;3.50;;;1.43;;
58412;SDS011;44209;52.952;6.790;2023-04-03T15:31:20;3.43;;;1.43;;
58412;SDS011;44209;52.952;6.790;2023-04-03T15:33:46;4.63;;;1.33;;
58412;SDS011;44209;52.952;6.790;2023-04-03T15:36:12;3.20;;;1.60;;
58412;SDS011;44209;52.952;6.790;2023-04-03T15:38:38;4.03;;;1.40;;
58412;SDS011;44209;52.952;6.790;2023-04-03T15:41:04;5.10;;;3.10;;
58412;SDS011;44209;52.952;6.790;2023-04-03T15:43:30;3.30;;;1.40;;
58412;SDS011;44209;52.952;6.790;2023-04-03T15:45:56;3.73;;;1.73;;
58412;SDS011;44209;52.952;6.790;2023-04-03T15:48:24;2.83;;;1.70;;
58412;SDS011;44209;52.952;6.790;2023-04-03T15:50:50;3.47;;;2.73;;
58412;SDS011;44209;52.952;6.790;2023-04-03T15:53:16;4.40;;;2.50;;
58412;SDS011;44209;52.952;6.790;2023-04-03T15:55:42;3.70;;;2.50;;
58412;SDS011;44209;52.952;6.790;2023-04-03T15:58:08;2.67;;;1.60;;
58412;SDS011;44209;52.952;6.790;2023-04-03T16:00:33;3.30;;;1.60;;
58412;SDS011;44209;52.952;6.790;2023-04-03T16:03:05;2.73;;;1.67;;
58412;SDS011;44209;52.952;6.790;2023-04-03T16:05:35;3.47;;;1.80;;
58412;SDS011;44209;52.952;6.790;2023-04-03T16:08:02;2.60;;;2.40;;
58412;SDS011;44209;52.952;6.790;2023-04-03T16:10:28;3.17;;;1.37;;
58412;SDS011;44209;52.952;6.790;2023-04-03T16:12:54;2.37;;;1.40;;
58412;SDS011;44209;52.952;6.790;2023-04-03T16:15:20;4.33;;;1.97;;
58412;SDS011;44209;52.952;6.790;2023-04-03T16:17:46;2.30;;;1.90;;
58412;SDS011;44209;52.952;6.790;2023-04-03T16:20:13;3.27;;;1.97;;
58412;SDS011;44209;52.952;6.790;2023-04-03T16:22:39;6.97;;;1.87;;
58412;SDS011;44209;52.952;6.790;2023-04-03T16:25:06;2.43;;;1.60;;
58412;SDS011;44209;52.952;6.790;2023-04-03T16:27:34;1.37;;;1.27;;
58412;SDS011;44209;52.952;6.790;2023-04-03T16:30:00;1.60;;;1.50;;
58412;SDS011;44209;52.952;6.790;2023-04-03T16:32:26;4.03;;;3.17;;
58412;SDS011;44209;52.952;6.790;2023-04-03T16:34:54;3.80;;;1.83;;
58412;SDS011;44209;52.952;6.790;2023-04-03T16:37:20;2.20;;;1.43;;
58412;SDS011;44209;52.952;6.790;2023-04-03T16:39:46;3.53;;;1.87;;
58412;SDS011;44209;52.952;6.790;2023-04-03T16:42:12;3.73;;;1.60;;
58412;SDS011;44209;52.952;6.790;2023-04-03T16:44:38;3.50;;;1.70;;
58412;SDS011;44209;52.952;6.790;2023-04-03T16:47:05;1.87;;;1.47;;
58412;SDS011;44209;52.952;6.790;2023-04-03T16:49:32;2.53;;;1.30;;
58412;SDS011;44209;52.952;6.790;2023-04-03T16:51:59;4.30;;;1.77;;
58412;SDS011;44209;52.952;6.790;2023-04-03T16:54:28;2.03;;;1.60;;